Date,TemperatureHighF,TemperatureAvgF,TemperatureLowF,DewpointHighF,DewpointAvgF,DewpointLowF,HumidityHigh,HumidityAvg,HumidityLow,PressureMaxIn,PressureMinIn,WindSpeedMaxMPH,WindSpeedAvgMPH,GustSpeedMaxMPH,PrecipitationSumIn
2013-10-1,74,65,60,64,61,55,97,87,71,29.93,29.83,12,4,17,0.00
2013-10-2,81,71,64,68,65,63,97,82,59,29.99,29.89,6,2,11,0.00
2013-10-3,77,68,64,69,65,62,98,91,71,29.92,29.79,8,2,22,0.94
2013-10-4,81,72,65,72,67,63,93,86,71,29.90,29.83,8,2,12,0.01
2013-10-5,77,70,66,72,68,65,97,93,82,29.89,29.70,9,2,23,0.62
2013-10-6,67,58,47,67,54,41,97,85,61,29.74,29.59,12,4,17,0.32
2013-10-7,62,50,44,49,44,41,91,80,50,30.04,29.68,14,4,16,0.00
2013-10-8,74,58,46,52,48,44,94,71,43,30.15,30.04,7,2,14,0.00
2013-10-9,71,58,44,50,46,42,93,68,39,30.18,30.06,8,1,12,0.00
2013-10-10,74,59,45,54,49,44,94,71,41,30.11,29.98,6,1,10,0.00
2013-10-11,75,60,45,52,48,44,94,68,38,30.03,29.90,7,1,10,0.00
2013-10-12,77,65,51,63,55,49,93,73,51,30.03,29.91,10,2,15,0.02
2013-10-13,65,55,44,58,46,40,95,72,43,30.30,30.04,10,2,15,0.01
2013-10-14,65,52,41,47,43,39,94,75,47,30.32,30.12,9,2,13,0.01
2013-10-15,64,56,48,62,53,44,96,89,79,30.12,29.75,12,4,17,0.19
2013-10-16,62,51,45,60,46,42,93,85,79,29.87,29.76,16,4,18,0.00
2013-10-17,50,48,42,47,45,40,94,88,81,29.86,29.75,9,3,16,0.09
2013-10-18,59,46,40,47,41,38,95,84,61,29.90,29.81,13,3,20,0.01
2013-10-19,52,44,41,41,40,34,94,85,51,29.87,29.74,12,3,20,0.06
2013-10-20,62,59,56,44,44,43,64,57,52,29.77,29.73,14,7,21,0.00
2013-10-21,56,49,37,46,40,27,86,72,61,29.89,29.75,15,6,25,0.00
2013-10-22,46,37,31,34,29,22,93,74,39,29.94,29.85,7,3,16,0.05
2013-10-23,44,38,35,37,33,26,95,82,55,29.95,29.80,10,3,19,0.08
2013-10-24,44,37,32,32,28,25,90,71,48,30.21,29.94,13,4,18,0.00
2013-10-25,49,39,31,30,28,26,85,65,42,30.35,30.10,14,4,20,0.00
2013-10-26,54,44,38,38,32,27,83,63,54,30.10,29.78,19,7,25,0.00
2013-10-27,54,42,30,34,31,29,92,69,40,30.03,29.92,9,2,15,0.00
2013-10-28,58,43,32,40,35,29,93,75,45,30.27,30.00,5,1,9,0.00
2013-10-29,54,44,34,42,38,31,92,79,58,30.31,30.12,9,3,11,0.00
2013-10-30,62,53,41,61,49,38,98,88,75,30.11,29.79,13,2,15,0.55
2013-10-31,64,60,52,62,59,50,98,95,93,29.78,29.15,15,7,28,1.74